Time;durP1;ratioP1;P1;durP2;ratioP2;P2;SDS_P1;SDS_P2;PMS_P1;PMS_P2;Temp;Humidity;BMP_temperature;BMP_pressure;BME280_temperature;BME280_humidity;BME280_pressure;Samples;Min_cycle;Max_cycle;Signal;HPM_P1;HPM_P2
2022/05/05 00:01:32;;;;;;;4.88;3.67;;;;;;;16.55;47.50;101519.91;5084284;28;20481;-50
2022/05/05 00:04:00;;;;;;;5.90;4.25;;;;;;;16.48;47.60;101519.00;5097111;28;20455;-49
2022/05/05 00:06:28;;;;;;;4.68;3.80;;;;;;;16.51;47.64;101509.75;5092103;28;20480;-49
2022/05/05 00:08:56;;;;;;;5.75;4.00;;;;;;;16.46;47.46;101509.50;5098637;28;20420;-50
2022/05/05 00:14:27;;;;;;;5.18;4.07;;;;;;;16.34;47.55;101511.84;5096037;28;20791;-52
2022/05/05 00:16:58;;;;;;;5.22;3.83;;;;;;;16.32;47.42;101511.22;5090616;28;20508;-60
2022/05/05 00:19:29;;;;;;;4.07;3.67;;;;;;;16.29;47.63;101517.75;5074757;28;20427;-52
2022/05/05 00:24:09;;;;;;;6.45;3.70;;;;;;;16.24;47.38;101521.00;5075443;28;20463;-50
2022/05/05 00:26:36;;;;;;;4.22;3.78;;;;;;;16.28;47.47;101523.28;5079350;28;20476;-52
2022/05/05 00:29:03;;;;;;;5.00;3.40;;;;;;;16.22;47.59;101517.69;5084944;28;20850;-51
2022/05/05 00:31:30;;;;;;;5.10;3.65;;;;;;;16.20;47.57;101511.66;5067105;28;21424;-50
2022/05/05 00:33:57;;;;;;;4.93;3.50;;;;;;;16.12;47.89;101517.16;5066126;28;20925;-55
2022/05/05 00:37:54;;;;;;;5.07;4.10;;;;;;;16.13;47.83;101509.94;5066041;28;20415;-55
2022/05/05 00:40:22;;;;;;;5.65;4.25;;;;;;;16.08;47.90;101509.66;5067245;28;20431;-50
2022/05/05 00:42:49;;;;;;;10.15;5.13;;;;;;;16.05;47.94;101505.53;5064495;28;20423;-52
2022/05/05 00:45:16;;;;;;;4.47;4.07;;;;;;;15.98;48.04;101512.66;5066466;28;20448;-54
2022/05/05 00:47:43;;;;;;;5.22;4.20;;;;;;;15.99;48.04;101511.63;5065261;28;20455;-53
2022/05/05 00:50:12;;;;;;;4.07;3.67;;;;;;;15.91;48.09;101509.06;5063648;28;20424;-52
2022/05/05 00:52:39;;;;;;;4.20;3.70;;;;;;;15.89;48.47;101511.91;5068017;28;20510;-54
2022/05/05 00:55:09;;;;;;;5.07;4.30;;;;;;;15.88;48.18;101507.56;5065492;28;20469;-54
2022/05/05 00:57:37;;;;;;;6.80;4.70;;;;;;;15.89;48.24;101505.75;5065770;28;20536;-49
2022/05/05 01:00:05;;;;;;;6.28;3.72;;;;;;;15.91;48.25;101503.72;5067442;28;20414;-51
2022/05/05 01:02:34;;;;;;;4.53;3.55;;;;;;;15.90;48.13;101513.59;5060649;28;20513;-54
2022/05/05 01:05:01;;;;;;;4.82;3.92;;;;;;;15.86;48.04;101517.63;5062317;28;20496;-50
2022/05/05 01:07:28;;;;;;;7.90;3.78;;;;;;;15.79;48.10;101514.03;5064466;28;20447;-52
2022/05/05 01:09:55;;;;;;;4.68;4.07;;;;;;;15.75;48.40;101524.25;5064101;28;20447;-50
2022/05/05 01:12:28;;;;;;;4.63;3.70;;;;;;;15.84;48.27;101519.66;5065169;28;20821;-54
2022/05/05 01:14:56;;;;;;;4.20;3.80;;;;;;;15.83;48.14;101526.03;5062721;28;20510;-53
2022/05/05 01:17:23;;;;;;;5.25;3.78;;;;;;;15.75;48.31;101524.25;5063998;28;20467;-54
2022/05/05 01:19:50;;;;;;;5.40;3.97;;;;;;;15.74;48.20;101527.97;5066060;28;20551;-51
2022/05/05 01:22:19;;;;;;;5.07;3.70;;;;;;;15.74;48.16;101525.28;5066081;28;20416;-55
2022/05/05 01:30:50;;;;;;;5.90;3.90;;;;;;;15.67;48.34;101529.69;5078940;27;20480;-51
2022/05/05 01:33:18;;;;;;;4.18;3.67;;;;;;;15.60;48.15;101534.91;5085849;28;20450;-51
2022/05/05 01:35:47;;;;;;;4.32;3.60;;;;;;;15.52;48.19;101536.84;5084545;28;20453;-50
2022/05/05 01:38:40;;;;;;;5.18;3.83;;;;;;;15.48;48.23;101533.69;5086219;27;20410;-52
2022/05/05 01:41:08;;;;;;;5.00;3.80;;;;;;;15.43;48.31;101528.94;5085240;28;20418;-49
2022/05/05 01:43:36;;;;;;;4.13;3.72;;;;;;;15.40;47.86;101536.47;5084857;28;20425;-49
2022/05/05 01:46:04;;;;;;;4.63;3.50;;;;;;;15.36;48.07;101532.47;5084004;28;21007;-52
2022/05/05 01:48:31;;;;;;;4.05;3.47;;;;;;;15.26;48.62;101543.44;5083299;28;20467;-50
2022/05/05 01:51:13;;;;;;;5.20;3.47;;;;;;;15.27;48.28;101545.09;5070729;28;21036;-51
2022/05/05 01:53:41;;;;;;;4.10;3.70;;;;;;;15.22;48.46;101545.63;5066490;28;20998;-52
2022/05/05 01:56:11;;;;;;;4.03;3.63;;;;;;;15.20;48.38;101541.50;5063384;28;20454;-50
2022/05/05 01:58:38;;;;;;;4.03;3.55;;;;;;;15.19;48.24;101532.63;5070036;28;20541;-52
2022/05/05 02:01:06;;;;;;;4.03;3.63;;;;;;;15.13;48.64;101538.72;5069494;28;20423;-51
2022/05/05 02:03:33;;;;;;;6.30;3.90;;;;;;;15.13;48.31;101540.56;5066577;28;20440;-53
2022/05/05 02:06:00;;;;;;;4.78;4.13;;;;;;;15.05;48.82;101542.28;5072736;28;20924;-52
2022/05/05 02:08:29;;;;;;;4.53;4.07;;;;;;;15.12;48.83;101533.53;5067982;28;20911;-50
2022/05/05 02:10:56;;;;;;;5.00;3.88;;;;;;;15.11;48.89;101546.06;5065349;28;20427;-53
2022/05/05 02:13:23;;;;;;;5.20;4.17;;;;;;;15.02;49.03;101545.31;5068085;28;20420;-51
2022/05/05 02:15:50;;;;;;;4.57;3.90;;;;;;;14.96;49.07;101540.66;5065309;28;20428;-52
2022/05/05 02:18:18;;;;;;;7.90;5.35;;;;;;;14.83;49.20;101543.94;5067128;28;20446;-52
2022/05/05 02:20:45;;;;;;;6.22;4.80;;;;;;;14.91;48.93;101551.88;5068758;28;20455;-52
2022/05/05 02:23:12;;;;;;;6.05;4.70;;;;;;;14.75;49.19;101549.34;5063125;28;20844;-54
2022/05/05 02:25:41;;;;;;;5.43;4.40;;;;;;;14.87;48.69;101542.59;5063824;28;20869;-51
2022/05/05 02:28:08;;;;;;;5.50;4.47;;;;;;;14.91;48.58;101551.06;5066613;28;20423;-52
2022/05/05 02:30:35;;;;;;;5.47;4.70;;;;;;;14.91;48.50;101554.56;5063725;28;20497;-50
2022/05/05 02:33:03;;;;;;;6.43;4.50;;;;;;;14.88;48.80;101552.22;5066309;28;20517;-50
2022/05/05 02:35:29;;;;;;;8.98;4.43;;;;;;;14.88;48.69;101554.09;5065328;28;20420;-49
2022/05/05 02:42:20;;;;;;;4.70;4.00;;;;;;;14.82;48.78;101563.63;5065693;27;20465;-50
2022/05/05 02:44:48;;;;;;;4.80;3.88;;;;;;;14.80;48.79;101562.13;5066167;28;20925;-52
2022/05/05 02:47:15;;;;;;;5.40;3.65;;;;;;;14.81;48.70;101564.63;5065435;28;20473;-52
2022/05/05 02:51:40;;;;;;;7.22;3.60;;;;;;;14.73;48.69;101567.38;5085753;27;20406;-54
2022/05/05 02:56:52;;;;;;;4.53;3.75;;;;;;;14.65;48.89;101562.88;5081186;28;20531;-53
2022/05/05 02:59:19;;;;;;;4.97;3.50;;;;;;;14.60;49.25;101567.91;5086273;28;20421;-49
2022/05/05 03:01:46;;;;;;;5.00;3.80;;;;;;;14.69;49.04;101572.22;5082907;28;20426;-50
2022/05/05 03:04:13;;;;;;;4.38;3.50;;;;;;;14.70;49.41;101581.06;5085871;28;20410;-51
2022/05/05 03:06:42;;;;;;;8.32;3.85;;;;;;;14.67;49.79;101578.72;5085792;28;20476;-52
2022/05/05 03:09:09;;;;;;;4.85;4.07;;;;;;;14.57;49.69;101578.94;5085808;28;20438;-53
2022/05/05 03:11:36;;;;;;;4.82;4.13;;;;;;;14.56;50.10;101582.59;5084418;28;20515;-53
2022/05/05 03:14:03;;;;;;;8.50;4.40;;;;;;;14.50;50.16;101583.31;5085447;28;20422;-54
2022/05/05 03:16:30;;;;;;;6.37;4.13;;;;;;;14.46;49.79;101590.81;5084561;28;20615;-49
2022/05/05 03:18:57;;;;;;;6.33;4.60;;;;;;;14.45;49.89;101591.00;5085548;28;20464;-52
2022/05/05 03:21:24;;;;;;;7.43;5.20;;;;;;;14.39;49.89;101603.19;5085984;28;20816;-50
2022/05/05 03:23:52;;;;;;;5.15;4.65;;;;;;;14.20;50.52;101601.75;5085292;28;20468;-49
2022/05/05 03:26:19;;;;;;;6.75;4.72;;;;;;;14.07;50.81;101610.28;5084006;28;20417;-49
2022/05/05 03:28:46;;;;;;;6.35;5.70;;;;;;;13.93;51.57;101603.00;5085467;28;20419;-53
2022/05/05 03:31:13;;;;;;;7.68;6.18;;;;;;;14.02;50.83;101612.63;5084587;28;20834;-51
2022/05/05 03:33:41;;;;;;;7.20;6.50;;;;;;;13.95;50.73;101614.31;5085289;28;20442;-53
2022/05/05 03:36:09;;;;;;;9.35;6.13;;;;;;;14.04;51.30;101615.97;5085090;28;20918;-52
2022/05/05 03:38:36;;;;;;;7.38;6.07;;;;;;;14.13;50.63;101625.63;5084710;28;20788;-52
2022/05/05 03:41:05;;;;;;;6.72;6.03;;;;;;;14.17;51.06;101631.44;5082828;28;20426;-52
2022/05/05 03:43:32;;;;;;;8.52;6.28;;;;;;;14.21;50.97;101630.09;5081046;28;20414;-50
2022/05/05 03:45:59;;;;;;;7.40;6.05;;;;;;;14.26;50.92;101624.22;5083940;28;20422;-50
2022/05/05 03:48:27;;;;;;;20.43;8.47;;;;;;;14.31;50.75;101635.22;5083378;28;20879;-50
2022/05/05 03:50:54;;;;;;;8.80;6.32;;;;;;;14.36;51.06;101638.22;5096418;28;20490;-52
2022/05/05 03:53:24;;;;;;;8.63;6.10;;;;;;;14.48;50.69;101638.69;5105417;28;20412;-51
2022/05/05 03:55:51;;;;;;;10.30;6.40;;;;;;;14.59;50.25;101637.50;5103153;28;20502;-52
2022/05/05 03:58:19;;;;;;;9.88;6.38;;;;;;;14.79;50.13;101635.22;5103839;28;21319;-54
2022/05/05 04:00:46;;;;;;;12.35;7.15;;;;;;;14.90;50.15;101640.97;5101329;28;20423;-53
2022/05/05 04:03:32;;;;;;;12.10;7.20;;;;;;;15.02;49.81;101644.09;5087705;28;20428;-51
2022/05/05 04:05:59;;;;;;;7.63;6.15;;;;;;;15.16;49.93;101647.84;5085347;28;20421;-56
2022/05/05 04:08:26;;;;;;;10.48;6.05;;;;;;;15.35;49.77;101657.22;5088659;28;20424;-51
2022/05/05 04:10:54;;;;;;;10.32;5.75;;;;;;;15.52;48.78;101651.75;5085323;28;20922;-55
2022/05/05 04:13:22;;;;;;;10.93;6.10;;;;;;;15.66;48.24;101654.47;5090484;28;20475;-50
2022/05/05 04:15:50;;;;;;;12.38;5.78;;;;;;;15.82;47.09;101652.69;5086996;28;20934;-51
2022/05/05 04:18:17;;;;;;;11.27;5.45;;;;;;;16.04;46.78;101649.13;5088490;28;20449;-50
2022/05/05 04:20:44;;;;;;;11.63;5.70;;;;;;;16.38;45.99;101655.75;5089848;28;20428;-52
2022/05/05 04:23:12;;;;;;;12.10;5.90;;;;;;;16.60;45.35;101661.19;5087528;28;20421;-52
2022/05/05 04:25:41;;;;;;;9.35;5.47;;;;;;;16.71;45.09;101671.44;5085851;28;20513;-56
2022/05/05 04:28:08;;;;;;;8.75;5.55;;;;;;;16.99;44.80;101679.63;5087267;28;20441;-55
2022/05/05 04:30:38;;;;;;;9.67;5.80;;;;;;;17.16;44.54;101674.03;5087354;28;20517;-54
2022/05/05 04:33:05;;;;;;;9.82;5.55;;;;;;;17.39;43.97;101677.38;5087451;28;20509;-51
2022/05/05 04:35:33;;;;;;;10.32;5.70;;;;;;;17.65;43.40;101678.63;5087616;28;20441;-52
2022/05/05 04:38:00;;;;;;;9.80;6.25;;;;;;;17.98;42.90;101677.25;5086354;28;21113;-55
2022/05/05 04:40:27;;;;;;;9.65;6.07;;;;;;;18.06;42.62;101672.59;5088050;28;20509;-54
2022/05/05 04:42:54;;;;;;;11.48;5.43;;;;;;;18.27;41.70;101685.09;5090320;28;20422;-50
2022/05/05 04:45:21;;;;;;;12.35;6.15;;;;;;;19.09;40.19;101680.72;5085057;28;20521;-54
2022/05/05 04:47:50;;;;;;;12.07;6.13;;;;;;;19.89;38.40;101682.69;5091107;28;20421;-55
2022/05/05 04:50:18;;;;;;;12.73;6.18;;;;;;;20.46;37.38;101683.00;5088873;28;20432;-53
2022/05/05 04:52:46;;;;;;;17.08;10.80;;;;;;;21.03;36.75;101685.06;5087048;28;20445;-54
2022/05/05 04:55:13;;;;;;;13.43;9.60;;;;;;;21.41;36.34;101678.78;5088325;28;20417;-55
2022/05/05 04:57:40;;;;;;;10.57;6.67;;;;;;;21.73;36.44;101682.31;5086247;28;20443;-55
2022/05/05 05:00:09;;;;;;;9.50;6.07;;;;;;;22.27;35.76;101677.25;5087331;28;20934;-54
2022/05/05 05:02:37;;;;;;;10.60;5.97;;;;;;;22.56;35.24;101678.38;5090285;28;20416;-54
2022/05/05 05:05:06;;;;;;;11.73;6.60;;;;;;;23.09;34.19;101682.28;5090692;28;20459;-54
2022/05/05 05:07:33;;;;;;;13.13;5.72;;;;;;;23.69;33.06;101675.94;5088022;28;20453;-54
2022/05/05 05:10:00;;;;;;;10.50;5.68;;;;;;;24.13;32.34;101683.72;5084272;28;20452;-58
2022/05/05 05:12:27;;;;;;;10.50;5.80;;;;;;;24.63;31.63;101677.78;5084729;28;20440;-59
2022/05/05 05:14:54;;;;;;;8.88;5.95;;;;;;;25.13;30.84;101685.22;5083222;28;20482;-56
2022/05/05 05:17:22;;;;;;;8.82;5.30;;;;;;;25.48;30.21;101691.53;5082712;28;20417;-55
2022/05/05 05:19:49;;;;;;;8.63;5.43;;;;;;;25.63;30.04;101697.25;5084645;28;20425;-59
2022/05/05 05:22:17;;;;;;;9.10;6.00;;;;;;;26.04;29.08;101694.38;5084020;28;20453;-58
2022/05/05 05:24:45;;;;;;;8.88;5.90;;;;;;;26.19;28.89;101689.13;5085102;28;20420;-59
2022/05/05 05:27:12;;;;;;;9.43;5.90;;;;;;;26.40;28.69;101687.50;5084181;28;20451;-57
2022/05/05 05:29:39;;;;;;;8.80;5.90;;;;;;;26.72;28.14;101683.28;5084044;28;20475;-59
2022/05/05 05:32:07;;;;;;;8.38;5.65;;;;;;;26.12;29.38;101688.47;5083865;28;20472;-57
2022/05/05 05:34:34;;;;;;;11.85;5.95;;;;;;;27.22;28.05;101688.41;5085576;28;20413;-58
2022/05/05 05:37:03;;;;;;;6.17;5.40;;;;;;;27.54;26.96;101692.25;5085017;28;21082;-59
2022/05/05 05:39:32;;;;;;;9.20;5.40;;;;;;;27.85;27.16;101690.56;5083361;28;20452;-57
2022/05/05 05:41:59;;;;;;;7.80;5.30;;;;;;;28.08;26.47;101697.56;5083455;28;20990;-58
2022/05/05 05:44:26;;;;;;;6.00;5.40;;;;;;;28.14;26.37;101682.03;5084590;28;20498;-60
2022/05/05 05:46:53;;;;;;;5.88;4.68;;;;;;;27.88;26.75;101687.31;5082433;28;20453;-61
2022/05/05 05:49:20;;;;;;;8.18;4.80;;;;;;;28.37;26.16;101694.44;5084199;28;20928;-59
2022/05/05 05:51:47;;;;;;;7.05;5.20;;;;;;;28.97;25.62;101687.56;5084198;28;20494;-60
2022/05/05 05:54:14;;;;;;;15.85;5.68;;;;;;;29.26;25.42;101692.53;5083631;28;20856;-59
2022/05/05 05:56:43;;;;;;;5.78;5.10;;;;;;;29.38;25.03;101694.97;5084116;28;20559;-59
2022/05/05 05:59:10;;;;;;;7.57;4.90;;;;;;;29.46;24.99;101701.81;5083839;28;20449;-59
2022/05/05 06:04:21;;;;;;;6.50;4.73;;;;;;;29.47;25.08;101704.25;5083219;28;20416;-56
2022/05/05 06:06:48;;;;;;;6.05;4.80;;;;;;;29.44;25.06;101702.09;5084586;28;20452;-59
2022/05/05 06:09:16;;;;;;;5.22;4.50;;;;;;;29.65;24.71;101702.88;5082338;28;20452;-59
2022/05/05 06:11:45;;;;;;;6.97;4.88;;;;;;;29.66;24.95;101707.28;5082125;28;20440;-58
2022/05/05 06:14:12;;;;;;;7.32;4.70;;;;;;;30.08;24.46;101702.59;5082841;28;20412;-59
2022/05/05 06:16:39;;;;;;;5.80;4.70;;;;;;;30.24;24.37;101704.16;5083985;28;20874;-58
2022/05/05 06:19:06;;;;;;;6.57;4.60;;;;;;;30.17;24.38;101705.56;5082675;28;20441;-58
2022/05/05 06:21:33;;;;;;;6.28;4.60;;;;;;;30.34;24.29;101703.31;5081763;28;20429;-59
2022/05/05 06:24:00;;;;;;;6.03;4.55;;;;;;;30.53;24.16;101710.94;5081549;28;20421;-58
2022/05/05 06:26:28;;;;;;;6.55;4.25;;;;;;;30.67;23.87;101714.69;5081940;28;20428;-57
2022/05/05 06:28:56;;;;;;;8.38;4.97;;;;;;;30.85;24.02;101713.22;5083345;28;20938;-56
2022/05/05 06:31:24;;;;;;;6.45;5.28;;;;;;;29.64;25.54;101714.09;5085095;28;20433;-60
2022/05/05 06:33:51;;;;;;;13.17;5.63;;;;;;;29.46;25.59;101712.72;5082695;28;20838;-56
2022/05/05 06:36:18;;;;;;;8.57;5.60;;;;;;;29.20;25.69;101717.38;5082964;28;20421;-57
2022/05/05 06:38:45;;;;;;;8.05;5.00;;;;;;;29.58;25.57;101720.66;5084701;28;20420;-59
2022/05/05 06:41:13;;;;;;;8.30;4.82;;;;;;;29.44;25.79;101714.91;5081253;28;20451;-61
2022/05/05 06:43:40;;;;;;;8.63;5.00;;;;;;;30.38;24.70;101715.38;5082655;28;20886;-56
2022/05/05 06:46:09;;;;;;;7.97;5.03;;;;;;;28.96;26.18;101715.94;5082186;28;20538;-58
2022/05/05 06:48:36;;;;;;;6.67;4.80;;;;;;;28.35;27.28;101711.06;5083886;28;20512;-56
2022/05/05 06:51:04;;;;;;;5.20;4.70;;;;;;;29.73;25.42;101710.53;5081305;28;20472;-57
2022/05/05 06:53:32;;;;;;;5.70;4.80;;;;;;;29.50;26.12;101706.47;5082677;28;20529;-57
2022/05/05 06:56:00;;;;;;;5.50;5.00;;;;;;;28.89;26.59;101700.91;5083619;28;20414;-56
2022/05/05 06:58:27;;;;;;;6.37;5.10;;;;;;;29.08;26.67;101701.22;5082126;28;20429;-55
2022/05/05 07:03:40;;;;;;;6.22;5.55;;;;;;;28.14;27.84;101709.31;5075460;28;20462;-57
2022/05/05 07:06:10;;;;;;;5.85;5.32;;;;;;;28.22;28.06;101708.81;5084265;28;20466;-58
2022/05/05 07:11:22;;;;;;;5.38;4.88;;;;;;;27.39;29.29;101712.84;5081724;28;20476;-56
2022/05/05 07:13:49;;;;;;;8.75;5.38;;;;;;;26.11;30.89;101712.13;5083402;28;20495;-60
2022/05/05 07:16:16;;;;;;;5.85;5.20;;;;;;;26.16;31.03;101716.78;5083293;28;20441;-57
2022/05/05 07:18:44;;;;;;;6.88;5.10;;;;;;;24.80;33.23;101722.06;5082761;28;20418;-56
2022/05/05 07:21:11;;;;;;;6.00;5.43;;;;;;;25.04;32.77;101723.84;5082590;28;20425;-60
2022/05/05 07:23:38;;;;;;;7.28;4.90;;;;;;;25.18;32.85;101717.88;5081774;28;20452;-54
2022/05/05 07:26:06;;;;;;;5.30;4.72;;;;;;;24.28;34.31;101710.38;5083553;28;20537;-55
2022/05/05 07:28:33;;;;;;;5.57;4.80;;;;;;;23.22;35.76;101717.25;5083952;28;20420;-58
2022/05/05 07:31:00;;;;;;;5.40;4.90;;;;;;;23.04;36.55;101728.94;5080225;28;20433;-55
2022/05/05 07:33:27;;;;;;;6.47;4.90;;;;;;;23.03;37.23;101726.44;5082432;28;20421;-57
2022/05/05 07:35:56;;;;;;;6.97;4.68;;;;;;;23.51;35.97;101735.59;5082075;28;20476;-61
2022/05/05 07:38:23;;;;;;;5.82;5.10;;;;;;;23.94;35.36;101727.19;5086479;28;20409;-57
2022/05/05 07:40:50;;;;;;;5.73;5.10;;;;;;;23.95;34.86;101745.09;5085064;28;20420;-57
2022/05/05 07:43:17;;;;;;;5.87;4.90;;;;;;;23.80;35.30;101755.56;5085891;28;20722;-54
2022/05/05 07:45:44;;;;;;;5.50;4.80;;;;;;;23.52;36.00;101750.78;5086312;28;20405;-56
2022/05/05 07:48:12;;;;;;;5.85;5.13;;;;;;;22.92;37.05;101749.66;5086497;28;20420;-55
2022/05/05 07:50:39;;;;;;;5.43;4.72;;;;;;;22.93;37.34;101754.03;5085221;28;20502;-57
2022/05/05 07:53:07;;;;;;;5.13;4.60;;;;;;;22.74;37.79;101750.50;5085405;28;20431;-56
2022/05/05 07:55:34;;;;;;;5.13;4.63;;;;;;;22.81;37.53;101742.31;5086454;28;20417;-59
2022/05/05 07:58:02;;;;;;;8.47;4.70;;;;;;;22.17;39.08;101750.66;5086782;28;20428;-58
2022/05/05 08:00:29;;;;;;;8.15;4.97;;;;;;;22.82;38.24;101752.91;5086888;28;20416;-59
2022/05/05 08:02:56;;;;;;;5.63;5.13;;;;;;;23.03;37.53;101754.31;5083916;28;20427;-61
2022/05/05 08:05:23;;;;;;;4.80;3.88;;;;;;;22.89;36.94;101761.78;5083844;28;20461;-57
2022/05/05 08:07:51;;;;;;;4.85;3.95;;;;;;;22.79;37.36;101747.94;5086709;28;20413;-58
2022/05/05 08:10:21;;;;;;;5.57;3.60;;;;;;;22.97;36.85;101759.81;5087013;28;20500;-57
2022/05/05 08:12:48;;;;;;;4.63;3.40;;;;;;;23.06;36.50;101755.75;5084757;28;20852;-60
2022/05/05 08:15:17;;;;;;;4.47;2.70;;;;;;;22.91;35.45;101761.53;5084747;28;20456;-56
2022/05/05 08:17:45;;;;;;;4.50;3.60;;;;;;;22.41;36.39;101764.38;5087246;28;20520;-57
2022/05/05 08:20:13;;;;;;;4.57;3.83;;;;;;;22.70;36.81;101758.22;5083284;28;20448;-60
2022/05/05 08:22:40;;;;;;;7.17;3.87;;;;;;;22.54;36.91;101756.13;5086508;28;20429;-58
2022/05/05 08:30:38;;;;;;;5.32;3.53;;;;;;;23.01;36.68;101763.69;5086647;28;20927;-60
2022/05/05 08:33:05;;;;;;;6.00;4.32;;;;;;;22.39;37.50;101764.59;5085290;28;21396;-57
2022/05/05 08:35:32;;;;;;;5.82;4.32;;;;;;;22.53;38.08;101751.78;5084050;28;20514;-59
2022/05/05 08:37:59;;;;;;;5.78;3.90;;;;;;;22.09;39.12;101762.59;5086278;28;20949;-58
2022/05/05 08:40:27;;;;;;;5.00;4.50;;;;;;;22.24;38.65;101766.81;5085476;28;20867;-58
2022/05/05 08:42:56;;;;;;;5.63;4.70;;;;;;;22.69;37.92;101753.06;5086750;28;20421;-58
2022/05/05 08:45:23;;;;;;;5.03;4.50;;;;;;;22.66;37.78;101753.53;5083499;28;20958;-58
2022/05/05 08:47:54;;;;;;;7.85;4.70;;;;;;;22.78;37.50;101749.03;5081153;28;20931;-59
2022/05/05 08:50:24;;;;;;;5.80;4.38;;;;;;;23.12;37.06;101748.63;5083593;28;20960;-58
2022/05/05 08:52:52;;;;;;;5.65;3.90;;;;;;;23.05;37.12;101754.94;5085585;28;20512;-59
2022/05/05 08:55:20;;;;;;;5.20;3.90;;;;;;;23.08;36.60;101759.91;5080748;28;21134;-57
2022/05/05 08:57:48;;;;;;;4.60;3.60;;;;;;;23.12;37.07;101754.03;5084242;28;20429;-61
2022/05/05 09:00:17;;;;;;;3.70;3.40;;;;;;;22.96;37.16;101747.31;5084217;28;20409;-61
2022/05/05 09:02:45;;;;;;;5.50;3.90;;;;;;;22.91;37.12;101748.03;5084315;28;20413;-59
2022/05/05 09:05:12;;;;;;;4.47;3.67;;;;;;;23.02;36.96;101752.66;5084943;28;21048;-58
2022/05/05 09:07:48;;;;;;;6.10;3.72;;;;;;;22.80;37.26;101752.31;5086360;28;20444;-58
2022/05/05 09:10:15;;;;;;;5.07;3.40;;;;;;;22.82;37.41;101747.50;5085161;28;21223;-57
2022/05/05 09:12:42;;;;;;;5.68;3.65;;;;;;;23.14;36.50;101750.06;5085721;28;20433;-58
2022/05/05 09:15:11;;;;;;;5.10;3.10;;;;;;;23.08;36.71;101751.78;5085315;28;20478;-60
2022/05/05 09:17:40;;;;;;;4.47;2.47;;;;;;;23.02;35.77;101746.44;5081660;28;20421;-58
2022/05/05 09:20:08;;;;;;;5.60;2.80;;;;;;;22.80;36.47;101754.19;5081518;28;20529;-60
2022/05/05 09:22:37;;;;;;;4.15;2.70;;;;;;;22.95;36.46;101751.09;5084986;28;20522;-59
2022/05/05 09:25:05;;;;;;;4.55;2.70;;;;;;;23.19;36.09;101747.50;5085282;28;20413;-60
2022/05/05 09:27:33;;;;;;;3.08;2.45;;;;;;;23.37;34.98;101740.34;5085360;28;20509;-59
2022/05/05 09:30:12;;;;;;;4.50;2.40;;;;;;;23.58;35.36;101742.53;5085036;28;20413;-58
2022/05/05 09:32:42;;;;;;;3.60;2.20;;;;;;;23.04;35.34;101745.16;5085398;28;20425;-59
2022/05/05 09:35:10;;;;;;;3.30;2.50;;;;;;;23.45;33.95;101735.44;5085800;28;20445;-56
2022/05/05 09:37:38;;;;;;;3.50;2.50;;;;;;;22.84;34.95;101740.00;5084831;28;20417;-60
2022/05/05 09:40:07;;;;;;;3.97;2.22;;;;;;;23.02;34.45;101731.03;5085000;28;20463;-57
2022/05/05 09:42:42;;;;;;;5.57;2.35;;;;;;;23.08;34.36;101738.28;5085307;28;20425;-58
2022/05/05 09:45:18;;;;;;;5.20;2.40;;;;;;;23.04;34.61;101728.94;5082661;28;20428;-59
2022/05/05 09:47:51;;;;;;;4.10;2.70;;;;;;;22.97;35.37;101730.06;5085294;28;20405;-56
2022/05/05 09:50:20;;;;;;;6.82;2.70;;;;;;;23.40;34.52;101726.38;5084600;28;20425;-59
2022/05/05 09:58:22;;;;;;;7.75;3.80;;;;;;;23.35;34.91;101729.75;5084746;28;20450;-56
2022/05/05 10:00:58;;;;;;;5.10;3.93;;;;;;;23.30;34.61;101724.25;5086484;28;20411;-57
2022/05/05 10:06:20;;;;;;;5.53;4.32;;;;;;;23.10;34.72;101729.91;5088920;28;20435;-57
2022/05/05 10:08:50;;;;;;;7.88;4.75;;;;;;;23.14;34.99;101719.44;5090367;28;21215;-56
2022/05/05 10:11:19;;;;;;;9.73;5.07;;;;;;;23.47;34.21;101717.09;5090123;28;20437;-56
2022/05/05 10:13:46;;;;;;;6.40;4.90;;;;;;;23.43;33.90;101725.91;5090009;28;20471;-57
2022/05/05 10:16:15;;;;;;;7.67;5.03;;;;;;;23.42;33.81;101730.50;5089291;28;20423;-56
2022/05/05 10:18:44;;;;;;;7.28;5.30;;;;;;;23.57;33.31;101723.81;5090082;28;20409;-56
2022/05/05 10:21:20;;;;;;;10.95;5.50;;;;;;;23.63;34.38;101736.44;5089654;28;20413;-56
2022/05/05 10:23:57;;;;;;;6.40;4.82;;;;;;;23.70;34.04;101730.91;5090191;28;20424;-57
2022/05/05 10:26:26;;;;;;;5.90;4.60;;;;;;;23.30;34.27;101732.34;5089745;28;20482;-56
2022/05/05 10:28:53;;;;;;;4.28;3.60;;;;;;;23.27;34.21;101727.41;5090046;28;20433;-57
2022/05/05 10:31:47;;;;;;;4.13;2.95;;;;;;;23.51;33.72;101719.34;5089688;28;20419;-55
2022/05/05 10:34:18;;;;;;;5.20;2.60;;;;;;;22.97;33.88;101722.75;5042591;28;20844;-56
2022/05/05 10:37:02;;;;;;;2.30;2.10;;;;;;;22.85;34.56;101716.47;5089647;28;20501;-54
2022/05/05 10:39:47;;;;;;;3.88;2.30;;;;;;;23.03;34.61;101723.72;5089604;28;20467;-55
2022/05/05 10:43:32;;;;;;;2.72;2.10;;;;;;;23.05;35.03;101727.91;5086333;28;20926;-57
2022/05/05 10:45:59;;;;;;;4.43;2.30;;;;;;;23.17;35.00;101719.81;5087042;28;20418;-57
2022/05/05 10:48:30;;;;;;;2.67;2.25;;;;;;;23.04;34.79;101723.53;5086913;28;20428;-56
2022/05/05 10:51:07;;;;;;;3.35;2.20;;;;;;;23.17;34.69;101727.94;5087137;28;20802;-56
2022/05/05 10:53:40;;;;;;;4.50;2.45;;;;;;;23.18;34.92;101726.06;5087143;28;20878;-57
2022/05/05 10:56:27;;;;;;;3.20;2.00;;;;;;;23.62;33.85;101727.50;5082695;28;20468;-58
2022/05/05 10:59:06;;;;;;;3.45;2.00;;;;;;;23.36;34.11;101723.31;5079795;28;20425;-58
2022/05/05 11:01:59;;;;;;;3.55;2.10;;;;;;;23.51;34.25;101722.88;5079209;28;20436;-59
2022/05/05 11:04:30;;;;;;;3.40;2.10;;;;;;;23.67;33.57;101726.78;5079906;28;20784;-61
2022/05/05 11:07:30;;;;;;;3.63;2.08;;;;;;;23.55;33.75;101724.06;5081640;28;20414;-59
2022/05/05 11:09:59;;;;;;;2.25;1.95;;;;;;;23.92;33.35;101715.78;5078871;28;20496;-61
2022/05/05 11:12:33;;;;;;;2.88;2.10;;;;;;;23.91;33.06;101714.13;5081255;28;20426;-57
2022/05/05 11:23:33;;;;;;;3.60;1.90;;;;;;;23.54;33.84;101716.19;5080746;28;20405;-59
2022/05/05 11:26:01;;;;;;;3.60;1.90;;;;;;;23.65;33.61;101718.91;5080725;28;20497;-61
2022/05/05 11:28:31;;;;;;;2.67;1.95;;;;;;;23.93;31.68;101708.47;5080752;28;20418;-59
2022/05/05 11:31:00;;;;;;;3.22;2.10;;;;;;;23.89;32.00;101713.53;5080832;28;20417;-59
2022/05/05 11:33:27;;;;;;;3.13;1.85;;;;;;;23.83;32.08;101706.38;5080622;28;20420;-61
2022/05/05 11:35:56;;;;;;;2.70;1.85;;;;;;;23.74;33.06;101713.16;5080550;28;20418;-60
2022/05/05 11:38:23;;;;;;;3.60;2.00;;;;;;;23.59;32.79;101711.72;5080597;28;20942;-60
2022/05/05 11:42:08;;;;;;;2.75;1.73;;;;;;;23.58;32.41;101711.94;5081822;27;20980;-58
2022/05/05 11:44:36;;;;;;;3.50;1.80;;;;;;;23.86;32.15;101705.91;5080420;28;20422;-58
2022/05/05 11:47:10;;;;;;;2.08;1.63;;;;;;;23.82;32.03;101702.84;5079255;28;20919;-58
2022/05/05 11:49:37;;;;;;;2.25;1.70;;;;;;;24.08;31.79;101706.13;5079982;28;20430;-58
2022/05/05 11:52:05;;;;;;;2.70;1.70;;;;;;;24.02;31.53;101698.94;5080666;28;20406;-58
2022/05/05 11:54:34;;;;;;;3.00;1.80;;;;;;;24.28;31.50;101692.22;5079136;28;20430;-59
2022/05/05 11:57:01;;;;;;;4.35;2.17;;;;;;;24.27;31.85;101695.16;5079933;28;20842;-57
2022/05/05 12:02:18;;;;;;;2.03;1.70;;;;;;;24.11;32.00;101685.84;5078090;28;21213;-60
2022/05/05 12:04:47;;;;;;;2.33;1.80;;;;;;;24.10;32.13;101685.03;5080523;28;20468;-59
2022/05/05 12:07:19;;;;;;;3.63;1.90;;;;;;;24.11;32.05;101675.03;5079718;28;20413;-59
2022/05/05 12:09:48;;;;;;;2.75;1.83;;;;;;;23.91;31.44;101678.09;5080695;28;20942;-59
2022/05/05 12:12:19;;;;;;;2.37;1.70;;;;;;;23.83;31.32;101676.56;5080353;28;20430;-56
2022/05/05 12:14:49;;;;;;;1.97;1.50;;;;;;;23.87;31.27;101677.75;5079761;28;20526;-58
2022/05/05 12:17:20;;;;;;;3.50;1.70;;;;;;;23.92;31.58;101679.75;5078636;28;20469;-56
2022/05/05 12:19:50;;;;;;;2.67;1.70;;;;;;;24.09;31.13;101672.53;5081755;28;20424;-58
2022/05/05 12:22:32;;;;;;;3.10;1.80;;;;;;;24.10;31.10;101667.97;5080668;28;20503;-58
2022/05/05 12:26:18;;;;;;;2.60;1.60;;;;;;;24.26;30.12;101666.44;5086122;27;20409;-58
2022/05/05 12:28:52;;;;;;;1.77;1.60;;;;;;;23.77;30.63;101669.34;5078608;28;20449;-56
2022/05/05 12:31:22;;;;;;;3.85;1.80;;;;;;;24.03;30.88;101660.78;5081299;28;20497;-59